Time;durP1;ratioP1;P1;durP2;ratioP2;P2;SDS_P1;SDS_P2;PMS_P1;PMS_P2;Temp;Humidity;BMP_temperature;BMP_pressure;BME280_temperature;BME280_humidity;BME280_pressure;Samples;Min_cycle;Max_cycle;Signal;HPM_P1;HPM_P2
2023/07/14 00:00:12;;;;;;;3.70;1.83;;;23.70;61.30;;;;;;5034234;28;20038;-64
2023/07/14 00:02:41;;;;;;;4.40;1.80;;;23.70;61.30;;;;;;5033925;28;20045;-62
2023/07/14 00:05:12;;;;;;;3.35;1.63;;;23.70;61.30;;;;;;5015323;28;20041;-63
2023/07/14 00:07:38;;;;;;;5.60;2.20;;;23.70;61.30;;;;;;5016149;28;20480;-63
2023/07/14 00:10:21;;;;;;;4.40;1.85;;;23.70;61.30;;;;;;5032791;28;20048;-63
2023/07/14 00:12:48;;;;;;;4.13;1.60;;;23.70;61.30;;;;;;5033810;28;20080;-63
2023/07/14 00:15:14;;;;;;;3.05;1.67;;;23.70;61.40;;;;;;5032481;28;20120;-63
2023/07/14 00:17:40;;;;;;;3.97;1.77;;;23.70;61.30;;;;;;5032517;28;20899;-63
2023/07/14 00:20:19;;;;;;;3.35;1.65;;;23.70;61.40;;;;;;5033656;28;20092;-63
2023/07/14 00:22:44;;;;;;;3.67;1.80;;;23.70;61.40;;;;;;5033670;28;20049;-63
2023/07/14 00:25:13;;;;;;;3.45;1.60;;;23.70;61.40;;;;;;5032813;28;20037;-64
2023/07/14 00:27:39;;;;;;;4.05;1.95;;;23.70;61.40;;;;;;5033390;28;20041;-63
2023/07/14 00:30:25;;;;;;;3.92;1.70;;;23.60;61.40;;;;;;5032334;28;20041;-63
2023/07/14 00:32:52;;;;;;;3.13;1.75;;;23.70;61.40;;;;;;5031312;28;20072;-63
2023/07/14 00:35:28;;;;;;;2.70;1.77;;;23.70;61.50;;;;;;5032077;28;20116;-63
2023/07/14 00:37:56;;;;;;;4.10;1.90;;;23.60;61.40;;;;;;5033672;28;20038;-63
2023/07/14 00:40:23;;;;;;;3.38;1.95;;;23.60;61.40;;;;;;5032269;28;20124;-64
2023/07/14 00:42:52;;;;;;;4.43;1.95;;;23.60;61.50;;;;;;5015602;28;20045;-63
2023/07/14 00:45:20;;;;;;;4.03;2.00;;;23.60;61.50;;;;;;5031057;28;20068;-63
2023/07/14 00:47:52;;;;;;;6.25;2.00;;;23.60;61.50;;;;;;5015565;28;20041;-63
2023/07/14 00:50:41;;;;;;;3.10;1.73;;;23.60;61.60;;;;;;5020362;28;20121;-63
2023/07/14 00:53:20;;;;;;;3.30;1.70;;;23.60;61.50;;;;;;5009140;28;20058;-63
2023/07/14 00:55:48;;;;;;;3.03;1.52;;;23.60;61.60;;;;;;5011873;28;20077;-64
2023/07/14 00:58:19;;;;;;;2.80;1.45;;;23.60;61.60;;;;;;4996137;28;20073;-63
2023/07/14 01:01:04;;;;;;;3.85;2.05;;;23.60;61.60;;;;;;5021797;28;20045;-63
2023/07/14 01:03:30;;;;;;;3.70;1.73;;;23.60;61.60;;;;;;5031932;28;20049;-63
2023/07/14 01:05:56;;;;;;;4.18;1.73;;;23.60;61.60;;;;;;5032909;28;20044;-63
2023/07/14 01:08:22;;;;;;;1.92;1.58;;;23.50;61.60;;;;;;5030892;28;20132;-64
2023/07/14 01:10:48;;;;;;;4.18;1.85;;;23.50;61.60;;;;;;5030931;28;20132;-63
2023/07/14 01:13:13;;;;;;;2.50;1.35;;;23.60;61.70;;;;;;5031138;28;20041;-64
2023/07/14 01:15:39;;;;;;;2.95;1.60;;;23.60;61.70;;;;;;5014462;28;20043;-64
2023/07/14 01:18:05;;;;;;;3.78;1.67;;;23.50;61.70;;;;;;5015209;28;20084;-63
2023/07/14 01:20:31;;;;;;;3.83;1.77;;;23.50;61.70;;;;;;5013269;28;20839;-63
2023/07/14 01:22:59;;;;;;;2.72;1.80;;;23.50;61.70;;;;;;5031385;28;20049;-63
2023/07/14 01:25:40;;;;;;;3.03;1.63;;;23.50;61.80;;;;;;5032114;28;20045;-63
2023/07/14 01:28:08;;;;;;;4.25;1.58;;;23.50;61.70;;;;;;5015516;28;20049;-63
2023/07/14 01:30:35;;;;;;;3.05;1.67;;;23.50;61.70;;;;;;5031973;28;20045;-63
2023/07/14 01:33:00;;;;;;;3.75;1.90;;;23.50;61.70;;;;;;5015342;28;20120;-63
2023/07/14 01:35:34;;;;;;;3.20;1.80;;;23.50;61.80;;;;;;5031612;28;20462;-63
2023/07/14 01:37:59;;;;;;;2.72;1.98;;;23.50;61.70;;;;;;5015310;28;20107;-63
2023/07/14 01:40:25;;;;;;;2.65;1.85;;;23.50;61.80;;;;;;5032204;28;20041;-63
2023/07/14 01:42:59;;;;;;;2.30;1.42;;;23.50;61.80;;;;;;5013757;28;20041;-63
2023/07/14 01:45:34;;;;;;;3.97;1.67;;;23.50;61.80;;;;;;5019056;28;20104;-63
2023/07/14 01:48:00;;;;;;;2.33;1.50;;;23.50;61.80;;;;;;5037959;28;20095;-64
2023/07/14 01:50:36;;;;;;;3.45;1.70;;;23.50;61.80;;;;;;5037011;28;20037;-63
2023/07/14 01:53:15;;;;;;;3.80;1.70;;;23.50;62.40;;;;;;5022412;28;20045;-64
2023/07/14 01:55:41;;;;;;;3.05;1.80;;;23.50;61.80;;;;;;5028880;28;20415;-64
2023/07/14 01:58:11;;;;;;;3.00;2.10;;;23.50;61.80;;;;;;5026532;28;20489;-63
2023/07/14 02:00:37;;;;;;;3.35;1.80;;;23.50;62.40;;;;;;5021041;28;20078;-64
2023/07/14 02:03:04;;;;;;;3.85;1.80;;;23.50;61.80;;;;;;5020240;28;20076;-63
2023/07/14 02:05:33;;;;;;;4.60;1.83;;;23.40;61.80;;;;;;5033497;28;20049;-63
2023/07/14 02:08:02;;;;;;;4.07;2.10;;;23.40;61.80;;;;;;5001720;28;20505;-63
2023/07/14 02:10:28;;;;;;;3.05;1.60;;;23.40;61.80;;;;;;5020478;28;20045;-63
2023/07/14 02:12:54;;;;;;;2.42;1.30;;;23.40;61.80;;;;;;5037423;28;20094;-64
2023/07/14 02:15:27;;;;;;;2.58;1.70;;;23.40;61.80;;;;;;5037503;28;20041;-63
2023/07/14 02:17:54;;;;;;;3.33;1.60;;;23.40;61.80;;;;;;5003812;28;20053;-63
2023/07/14 02:20:27;;;;;;;3.60;1.70;;;23.40;61.80;;;;;;5035061;28;20087;-63
2023/07/14 02:22:53;;;;;;;3.15;1.70;;;23.40;61.90;;;;;;5000986;28;20311;-64
2023/07/14 02:25:19;;;;;;;2.72;1.60;;;23.40;61.90;;;;;;5035234;28;20045;-63
2023/07/14 02:27:44;;;;;;;2.53;1.40;;;23.40;61.90;;;;;;5018537;28;20044;-63
2023/07/14 02:30:22;;;;;;;3.00;1.83;;;23.40;61.90;;;;;;5017836;28;20418;-63
2023/07/14 02:33:00;;;;;;;3.58;1.77;;;23.40;61.90;;;;;;5016471;28;20409;-63
2023/07/14 02:35:56;;;;;;;2.25;1.52;;;23.40;61.90;;;;;;5028840;28;20099;-63
2023/07/14 02:38:24;;;;;;;2.95;1.77;;;23.40;61.90;;;;;;5001804;28;20054;-64
2023/07/14 02:40:54;;;;;;;2.42;1.52;;;23.40;61.90;;;;;;5017413;28;20628;-63
2023/07/14 02:43:21;;;;;;;3.35;1.75;;;23.40;61.90;;;;;;5018569;28;20107;-63
2023/07/14 02:45:53;;;;;;;2.85;1.83;;;23.40;61.90;;;;;;5016690;28;20034;-64
2023/07/14 02:48:21;;;;;;;2.65;1.60;;;23.30;61.90;;;;;;5017489;28;20121;-63
2023/07/14 02:50:46;;;;;;;2.88;1.60;;;23.30;61.90;;;;;;5001505;28;20041;-63
2023/07/14 02:53:12;;;;;;;3.03;1.70;;;23.30;61.90;;;;;;5018146;28;20046;-64
2023/07/14 02:55:38;;;;;;;3.25;1.90;;;23.30;61.90;;;;;;5017283;28;20061;-63
2023/07/14 02:58:04;;;;;;;2.20;1.70;;;23.30;62.60;;;;;;5012878;28;20073;-63
2023/07/14 03:00:30;;;;;;;3.08;1.70;;;23.30;62.00;;;;;;5015028;28;20065;-63
2023/07/14 03:02:56;;;;;;;2.50;1.30;;;23.30;62.00;;;;;;5034976;28;20095;-63
2023/07/14 03:05:21;;;;;;;2.72;1.63;;;23.30;62.00;;;;;;5035347;28;20041;-64
2023/07/14 03:07:47;;;;;;;2.70;1.70;;;23.30;62.00;;;;;;5034025;28;20045;-63
2023/07/14 03:10:13;;;;;;;2.97;1.70;;;23.30;62.00;;;;;;5033701;28;20132;-63
2023/07/14 03:12:39;;;;;;;3.22;1.75;;;23.30;62.00;;;;;;5033155;28;20041;-63
2023/07/14 03:15:05;;;;;;;4.43;2.00;;;23.30;62.00;;;;;;5033246;28;20433;-63
2023/07/14 03:17:31;;;;;;;2.58;1.50;;;23.30;62.00;;;;;;5034456;28;20164;-65
2023/07/14 03:19:56;;;;;;;3.33;1.73;;;23.30;62.00;;;;;;5033277;28;20065;-63
2023/07/14 03:22:23;;;;;;;2.85;1.48;;;23.30;62.00;;;;;;5033559;28;20465;-63
2023/07/14 03:24:49;;;;;;;2.70;1.77;;;23.30;62.10;;;;;;5034584;28;20051;-63
2023/07/14 03:27:14;;;;;;;3.40;2.00;;;23.30;62.10;;;;;;5033811;28;20132;-63
2023/07/14 03:29:40;;;;;;;2.67;1.67;;;23.30;62.10;;;;;;5034573;28;20056;-63
2023/07/14 03:32:07;;;;;;;3.15;1.77;;;23.30;62.10;;;;;;5034237;28;20056;-63
2023/07/14 03:34:32;;;;;;;3.45;1.63;;;23.30;62.10;;;;;;5032213;28;20572;-63
2023/07/14 03:36:58;;;;;;;3.28;2.10;;;23.20;62.00;;;;;;5028367;28;20132;-63
2023/07/14 03:39:26;;;;;;;3.17;1.70;;;23.30;62.10;;;;;;5014272;28;20125;-63
2023/07/14 03:41:52;;;;;;;2.40;1.50;;;23.30;62.10;;;;;;5022683;28;20046;-63
2023/07/14 03:44:18;;;;;;;3.08;1.90;;;23.20;62.10;;;;;;5016729;28;20038;-63
2023/07/14 03:46:44;;;;;;;2.55;1.80;;;23.20;62.10;;;;;;5014316;28;20129;-64
2023/07/14 03:49:09;;;;;;;2.03;1.40;;;23.20;62.10;;;;;;5013869;28;20053;-65
2023/07/14 03:51:35;;;;;;;2.30;1.55;;;23.20;62.10;;;;;;5014411;28;20046;-63
2023/07/14 03:54:01;;;;;;;3.15;1.80;;;23.20;62.10;;;;;;5014081;28;20123;-64
2023/07/14 03:56:26;;;;;;;2.67;1.60;;;23.20;62.10;;;;;;5013462;28;20050;-64
2023/07/14 03:58:52;;;;;;;2.60;1.70;;;23.20;62.10;;;;;;5013028;28;20044;-63
2023/07/14 04:01:18;;;;;;;2.72;2.00;;;23.20;62.10;;;;;;5016693;28;20038;-63
2023/07/14 04:03:45;;;;;;;2.58;1.60;;;23.20;62.10;;;;;;5025690;28;20078;-63
2023/07/14 04:06:11;;;;;;;2.80;1.70;;;23.20;62.10;;;;;;5033520;28;20049;-63
2023/07/14 04:08:42;;;;;;;3.35;1.52;;;23.20;62.10;;;;;;5032232;28;20041;-64
2023/07/14 04:11:08;;;;;;;2.70;1.80;;;23.20;62.10;;;;;;5033443;28;20053;-64
2023/07/14 04:13:34;;;;;;;2.33;1.60;;;23.20;62.10;;;;;;5032221;28;20128;-63
2023/07/14 04:15:59;;;;;;;2.85;1.88;;;23.20;62.10;;;;;;5033794;28;20041;-63
2023/07/14 04:18:25;;;;;;;3.92;1.73;;;23.20;62.10;;;;;;5033349;28;20091;-63
2023/07/14 04:20:50;;;;;;;2.70;1.80;;;23.20;62.20;;;;;;5033330;28;20393;-63
2023/07/14 04:23:17;;;;;;;2.80;1.52;;;23.20;62.10;;;;;;5032653;28;20037;-64
2023/07/14 04:25:44;;;;;;;3.33;1.80;;;23.20;62.20;;;;;;5033308;28;20136;-63
2023/07/14 04:28:09;;;;;;;3.03;1.90;;;23.20;62.20;;;;;;5031854;28;20037;-63
2023/07/14 04:30:35;;;;;;;3.13;1.60;;;23.20;62.20;;;;;;5025945;28;20048;-63
2023/07/14 04:33:01;;;;;;;2.53;1.48;;;23.20;62.20;;;;;;5028382;28;20056;-63
2023/07/14 04:35:26;;;;;;;3.67;1.85;;;23.20;62.20;;;;;;5032218;28;20033;-64
2023/07/14 04:37:52;;;;;;;3.08;1.70;;;23.20;62.30;;;;;;5015891;28;20084;-64
2023/07/14 04:40:18;;;;;;;3.05;1.80;;;23.20;63.00;;;;;;5013318;28;20125;-64
2023/07/14 04:42:43;;;;;;;3.28;1.65;;;23.20;62.50;;;;;;5011937;28;20397;-64
2023/07/14 04:45:11;;;;;;;2.60;1.55;;;23.20;62.50;;;;;;5012958;28;20046;-64
2023/07/14 04:47:36;;;;;;;2.90;1.60;;;23.20;62.50;;;;;;5012036;28;20054;-64
2023/07/14 04:50:02;;;;;;;1.98;1.40;;;23.20;62.60;;;;;;5012455;28;20079;-64
2023/07/14 04:52:29;;;;;;;2.78;1.67;;;23.20;62.60;;;;;;5011404;28;20046;-63
2023/07/14 04:54:55;;;;;;;2.13;1.52;;;23.20;62.60;;;;;;5013151;28;20085;-63
2023/07/14 04:57:20;;;;;;;2.55;1.70;;;23.20;62.60;;;;;;5013584;28;20401;-64
2023/07/14 04:59:46;;;;;;;2.50;1.60;;;23.20;62.60;;;;;;5012565;28;20034;-64
2023/07/14 05:02:11;;;;;;;2.70;1.70;;;23.20;62.60;;;;;;5021534;28;20034;-64
2023/07/14 05:04:38;;;;;;;2.67;1.60;;;23.20;62.60;;;;;;5031566;28;20049;-63
2023/07/14 05:07:04;;;;;;;2.13;1.70;;;23.20;62.60;;;;;;5032287;28;20175;-64
2023/07/14 05:09:30;;;;;;;2.15;1.42;;;23.20;62.60;;;;;;5031594;28;20128;-64
2023/07/14 05:11:56;;;;;;;3.80;2.08;;;23.20;62.60;;;;;;5029997;28;20492;-64
2023/07/14 05:14:21;;;;;;;2.67;1.67;;;23.20;62.60;;;;;;5032021;28;20477;-64
2023/07/14 05:16:47;;;;;;;2.40;1.70;;;23.20;62.70;;;;;;5029226;28;20044;-63
2023/07/14 05:19:12;;;;;;;3.25;1.83;;;23.20;62.70;;;;;;5030947;28;20045;-72
2023/07/14 05:21:39;;;;;;;2.75;1.83;;;23.20;62.60;;;;;;5022275;28;20044;-63
2023/07/14 05:24:05;;;;;;;5.72;1.98;;;23.20;62.70;;;;;;5031173;28;20055;-63
2023/07/14 05:26:30;;;;;;;3.55;1.88;;;23.20;62.60;;;;;;5029998;28;20041;-63
2023/07/14 05:28:56;;;;;;;2.60;1.55;;;23.20;62.60;;;;;;5011451;28;20540;-63
2023/07/14 05:31:22;;;;;;;5.28;1.90;;;23.20;62.70;;;;;;5012950;28;20038;-62
2023/07/14 05:33:47;;;;;;;4.72;1.67;;;23.20;62.70;;;;;;5031049;28;20403;-61
2023/07/14 05:36:13;;;;;;;4.57;1.90;;;23.20;62.70;;;;;;5032813;28;20099;-63
2023/07/14 05:38:38;;;;;;;5.32;1.85;;;23.20;62.80;;;;;;5014170;28;20042;-63
2023/07/14 05:41:04;;;;;;;4.72;2.05;;;23.20;62.70;;;;;;5011946;28;20084;-63
2023/07/14 05:43:30;;;;;;;4.65;1.67;;;23.20;62.80;;;;;;5029254;28;20049;-63
2023/07/14 05:45:56;;;;;;;3.83;1.90;;;23.20;62.80;;;;;;5032442;28;20381;-63
2023/07/14 05:48:22;;;;;;;5.20;1.92;;;23.20;62.70;;;;;;5031364;28;20485;-63
2023/07/14 05:50:48;;;;;;;4.40;1.85;;;23.20;62.90;;;;;;5032133;28;20087;-63
2023/07/14 05:53:14;;;;;;;6.15;2.13;;;23.20;62.90;;;;;;5030688;28;20030;-63
2023/07/14 05:55:40;;;;;;;4.20;1.63;;;23.20;62.90;;;;;;5030554;28;20054;-67
2023/07/14 05:58:07;;;;;;;6.57;2.17;;;23.20;62.80;;;;;;5029183;28;20110;-63
2023/07/14 06:00:38;;;;;;;6.80;2.50;;;23.20;62.80;;;;;;5022177;28;20053;-62
2023/07/14 06:03:08;;;;;;;7.82;2.35;;;23.20;62.90;;;;;;5017389;28;20046;-63
2023/07/14 06:05:34;;;;;;;7.13;2.53;;;23.20;63.00;;;;;;5018360;28;20046;-63
2023/07/14 06:07:59;;;;;;;6.03;2.40;;;23.20;63.10;;;;;;5017490;28;20046;-63
2023/07/14 06:10:25;;;;;;;11.13;2.75;;;23.20;63.10;;;;;;5014568;28;20049;-62
2023/07/14 06:12:51;;;;;;;9.13;3.03;;;23.20;63.20;;;;;;5021119;28;20052;-65
2023/07/14 06:15:17;;;;;;;11.82;2.50;;;23.20;63.30;;;;;;5031416;28;20040;-63
2023/07/14 06:17:42;;;;;;;9.77;3.00;;;23.20;63.30;;;;;;5026661;28;20139;-62
2023/07/14 06:20:11;;;;;;;9.93;2.47;;;23.20;63.30;;;;;;5031561;28;20041;-62
2023/07/14 06:22:37;;;;;;;8.95;2.60;;;23.20;63.50;;;;;;5017228;28;20501;-63
2023/07/14 06:25:03;;;;;;;8.32;2.50;;;23.30;63.50;;;;;;5031835;28;20045;-63
2023/07/14 06:27:33;;;;;;;7.60;2.35;;;23.30;63.60;;;;;;5031425;28;20052;-62
2023/07/14 06:29:59;;;;;;;11.07;2.53;;;23.30;63.60;;;;;;5030869;28;20915;-63
2023/07/14 06:32:25;;;;;;;9.02;2.47;;;23.30;63.60;;;;;;5028890;28;20042;-63
2023/07/14 06:34:50;;;;;;;10.35;2.28;;;23.40;63.60;;;;;;5014391;28;20104;-64
2023/07/14 06:37:16;;;;;;;6.20;2.65;;;23.30;63.60;;;;;;5014962;28;20034;-64
2023/07/14 06:39:42;;;;;;;5.78;2.28;;;23.30;63.50;;;;;;5015665;28;20048;-64
2023/07/14 06:42:09;;;;;;;7.32;2.50;;;23.30;63.50;;;;;;5014360;28;20466;-65
2023/07/14 06:44:35;;;;;;;7.50;2.80;;;23.30;63.40;;;;;;5013813;28;20045;-66
2023/07/14 06:47:00;;;;;;;9.25;2.65;;;23.30;63.20;;;;;;5015463;28;20116;-63
2023/07/14 06:49:26;;;;;;;6.43;2.60;;;23.30;62.90;;;;;;5015550;28;20045;-64
2023/07/14 06:51:51;;;;;;;12.52;2.78;;;23.30;62.90;;;;;;5019089;28;20445;-64
2023/07/14 06:54:17;;;;;;;7.40;2.85;;;23.30;62.90;;;;;;5034486;28;20500;-63
2023/07/14 06:56:43;;;;;;;9.40;3.10;;;23.30;62.90;;;;;;5034986;28;20080;-62
2023/07/14 06:59:08;;;;;;;11.73;2.53;;;23.30;63.00;;;;;;5034483;28;20162;-62
2023/07/14 07:01:34;;;;;;;10.73;2.97;;;23.40;63.30;;;;;;5031562;28;20041;-63
2023/07/14 07:04:00;;;;;;;10.93;2.78;;;23.40;63.30;;;;;;5034909;28;20038;-64
2023/07/14 07:06:25;;;;;;;9.25;2.70;;;23.40;63.40;;;;;;5033386;28;20492;-64
2023/07/14 07:08:51;;;;;;;11.80;3.25;;;23.40;63.30;;;;;;5033988;28;20079;-64
2023/07/14 07:11:17;;;;;;;12.85;3.10;;;23.40;63.30;;;;;;5033368;28;20591;-63
2023/07/14 07:13:42;;;;;;;8.65;2.92;;;23.40;63.20;;;;;;5032235;28;20041;-62
2023/07/14 07:16:08;;;;;;;8.85;2.80;;;23.40;63.10;;;;;;5033448;28;20042;-60
2023/07/14 07:18:34;;;;;;;9.90;4.25;;;23.40;63.00;;;;;;5032480;28;20037;-61
2023/07/14 07:20:59;;;;;;;12.90;5.38;;;23.40;62.50;;;;;;5032395;28;20128;-60
2023/07/14 07:23:25;;;;;;;12.23;4.55;;;23.30;62.00;;;;;;5025973;28;20057;-60
2023/07/14 07:25:52;;;;;;;9.18;5.13;;;23.20;61.90;;;;;;5030652;28;20055;-58
2023/07/14 07:28:18;;;;;;;8.55;4.90;;;23.20;62.00;;;;;;5031760;28;20033;-58
2023/07/14 07:30:44;;;;;;;7.28;4.63;;;23.10;62.00;;;;;;5034608;28;20050;-58
2023/07/14 07:33:10;;;;;;;8.10;4.60;;;23.00;62.10;;;;;;5033482;28;20122;-58
2023/07/14 07:35:40;;;;;;;9.02;5.07;;;23.00;62.30;;;;;;5033863;28;20041;-59
2023/07/14 07:38:07;;;;;;;8.48;4.95;;;22.90;62.30;;;;;;5034314;28;20038;-59
2023/07/14 07:40:33;;;;;;;9.55;5.43;;;22.80;62.40;;;;;;5032835;28;20412;-59
2023/07/14 07:43:01;;;;;;;7.70;4.53;;;22.80;62.60;;;;;;5033965;28;20041;-59
2023/07/14 07:45:26;;;;;;;7.90;4.07;;;22.80;62.70;;;;;;5034361;28;20045;-59
2023/07/14 07:47:52;;;;;;;7.65;4.28;;;22.80;62.90;;;;;;5032981;28;20063;-59
2023/07/14 07:50:18;;;;;;;8.90;4.63;;;22.70;62.90;;;;;;5034026;28;20120;-59
2023/07/14 07:52:45;;;;;;;6.97;5.45;;;22.70;63.00;;;;;;5033846;28;20048;-59
2023/07/14 07:55:10;;;;;;;8.10;5.20;;;22.70;63.20;;;;;;5028924;28;20128;-60
2023/07/14 07:57:36;;;;;;;9.15;4.63;;;22.70;63.10;;;;;;5024205;28;20449;-60
2023/07/14 08:00:03;;;;;;;9.85;4.95;;;22.60;63.10;;;;;;5034203;28;20053;-60
2023/07/14 08:02:29;;;;;;;7.97;4.40;;;22.60;63.10;;;;;;5033324;28;20100;-60
2023/07/14 08:04:55;;;;;;;7.18;4.50;;;22.60;63.20;;;;;;5034223;28;20303;-60
2023/07/14 08:07:20;;;;;;;9.20;4.50;;;22.60;63.10;;;;;;5033115;28;20042;-60
2023/07/14 08:09:49;;;;;;;7.88;4.25;;;22.60;63.10;;;;;;5033157;28;20053;-60
2023/07/14 08:12:15;;;;;;;9.32;3.97;;;22.60;62.90;;;;;;5034150;28;20037;-61
2023/07/14 08:14:54;;;;;;;8.88;3.47;;;22.60;62.80;;;;;;5033982;28;20434;-61
2023/07/14 08:17:25;;;;;;;9.40;3.42;;;22.60;62.30;;;;;;5033033;28;20102;-60
2023/07/14 08:19:51;;;;;;;8.95;3.88;;;22.60;62.30;;;;;;5033378;28;20389;-60
2023/07/14 08:22:17;;;;;;;7.47;3.75;;;22.60;62.30;;;;;;5033176;28;20075;-60
2023/07/14 08:24:43;;;;;;;9.38;3.58;;;22.60;62.30;;;;;;5033503;28;20046;-60
2023/07/14 08:27:09;;;;;;;10.48;3.38;;;22.60;62.30;;;;;;5032266;28;20048;-60
2023/07/14 08:29:34;;;;;;;7.88;3.88;;;22.60;62.30;;;;;;5032562;28;20128;-61
2023/07/14 08:32:00;;;;;;;9.10;3.03;;;22.60;62.30;;;;;;5033633;28;20042;-60
2023/07/14 08:34:27;;;;;;;12.82;2.88;;;22.60;62.10;;;;;;5033446;28;20038;-60
2023/07/14 08:36:53;;;;;;;7.53;2.55;;;22.60;61.80;;;;;;5032602;28;20505;-61
2023/07/14 08:39:19;;;;;;;10.30;3.08;;;22.60;61.20;;;;;;5033552;28;20564;-60
2023/07/14 08:41:46;;;;;;;5.78;2.80;;;22.60;60.60;;;;;;5032421;28;20133;-60
2023/07/14 08:44:21;;;;;;;6.72;2.38;;;22.50;60.10;;;;;;5032834;28;20064;-61
2023/07/14 08:47:10;;;;;;;6.55;2.92;;;22.50;60.00;;;;;;5033176;28;20057;-61
2023/07/14 08:49:42;;;;;;;7.28;2.90;;;22.50;59.90;;;;;;5031702;28;20045;-61
2023/07/14 08:52:32;;;;;;;11.75;3.13;;;22.50;59.70;;;;;;5032718;28;20046;-61
2023/07/14 08:55:04;;;;;;;12.90;3.28;;;22.50;59.50;;;;;;5032012;28;20058;-60
2023/07/14 08:57:29;;;;;;;8.10;2.60;;;22.50;59.50;;;;;;5015413;28;20056;-60
2023/07/14 08:59:57;;;;;;;8.82;2.45;;;22.50;59.40;;;;;;5032050;28;20038;-60
2023/07/14 09:02:31;;;;;;;5.40;2.58;;;22.50;59.50;;;;;;5031962;28;20405;-60
2023/07/14 09:05:05;;;;;;;5.22;2.58;;;22.50;59.70;;;;;;5031485;28;20179;-60
2023/07/14 09:07:31;;;;;;;5.40;2.40;;;22.50;59.60;;;;;;5031689;28;20045;-60
2023/07/14 09:09:56;;;;;;;7.15;2.80;;;22.50;59.60;;;;;;5031752;28;20528;-60
2023/07/14 09:12:31;;;;;;;6.70;2.30;;;22.50;59.40;;;;;;5031161;28;20037;-61
2023/07/14 09:15:05;;;;;;;5.03;2.22;;;22.60;59.30;;;;;;5033235;28;20056;-61
2023/07/14 09:17:42;;;;;;;6.40;2.50;;;22.60;59.20;;;;;;5032432;28;20508;-60
2023/07/14 09:20:29;;;;;;;6.95;2.38;;;22.60;58.90;;;;;;5031892;28;20515;-60
2023/07/14 09:22:55;;;;;;;8.55;2.85;;;22.60;59.10;;;;;;5031416;28;20076;-60
2023/07/14 09:25:26;;;;;;;8.73;2.30;;;22.60;59.10;;;;;;5032660;28;20045;-60
2023/07/14 09:27:52;;;;;;;9.60;2.78;;;22.60;59.10;;;;;;5031985;28;20045;-60
2023/07/14 09:30:22;;;;;;;6.82;2.90;;;22.60;59.30;;;;;;5032636;28;20184;-60
2023/07/14 09:32:51;;;;;;;10.98;3.10;;;22.60;59.00;;;;;;5032161;28;20087;-61
2023/07/14 09:35:22;;;;;;;6.32;2.03;;;22.60;59.10;;;;;;5031692;28;20044;-60
2023/07/14 09:38:03;;;;;;;6.75;2.33;;;22.70;59.10;;;;;;5014678;28;20443;-60
2023/07/14 09:40:36;;;;;;;7.57;2.38;;;22.70;58.90;;;;;;5015795;28;20038;-60
2023/07/14 09:43:02;;;;;;;6.13;2.60;;;22.70;58.70;;;;;;5032622;28;20045;-60
2023/07/14 09:45:30;;;;;;;5.40;2.60;;;22.70;58.30;;;;;;5032409;28;20388;-60
2023/07/14 09:48:18;;;;;;;5.78;2.22;;;22.70;57.90;;;;;;5031755;28;20045;-61
2023/07/14 09:51:09;;;;;;;5.82;2.40;;;22.60;57.70;;;;;;5031110;28;20553;-60
2023/07/14 09:53:36;;;;;;;6.55;2.97;;;22.60;58.20;;;;;;5015630;28;20052;-60
2023/07/14 09:56:07;;;;;;;7.50;2.80;;;22.60;57.60;;;;;;5032090;28;20100;-60
2023/07/14 09:58:33;;;;;;;5.13;1.88;;;22.60;57.20;;;;;;5032005;28;20448;-60
2023/07/14 10:01:02;;;;;;;7.32;2.30;;;22.60;57.40;;;;;;5031853;28;20378;-60
2023/07/14 10:03:42;;;;;;;6.28;2.30;;;22.50;57.20;;;;;;5032576;28;20037;-60
2023/07/14 10:06:16;;;;;;;7.35;2.50;;;22.50;57.10;;;;;;5033963;28;20449;-61
2023/07/14 10:08:59;;;;;;;4.95;2.13;;;22.50;57.30;;;;;;5035095;28;20044;-60
2023/07/14 10:11:47;;;;;;;6.78;2.90;;;22.50;57.70;;;;;;5033847;28;20041;-60
2023/07/14 10:14:36;;;;;;;3.83;1.92;;;22.50;57.80;;;;;;5035120;28;20531;-61
2023/07/14 10:17:02;;;;;;;5.28;2.13;;;22.60;57.30;;;;;;5032573;28;20041;-60
2023/07/14 10:19:41;;;;;;;4.38;2.40;;;22.60;57.40;;;;;;5035886;28;20044;-60
2023/07/14 10:22:09;;;;;;;8.80;2.45;;;22.60;57.40;;;;;;5033084;28;20038;-61
2023/07/14 10:24:37;;;;;;;7.03;2.05;;;22.60;57.20;;;;;;5034785;28;20048;-59
2023/07/14 10:27:33;;;;;;;6.30;2.15;;;22.60;57.50;;;;;;5033149;28;20044;-60
2023/07/14 10:30:17;;;;;;;4.75;1.80;;;22.60;57.30;;;;;;5033076;28;20057;-59
2023/07/14 10:32:51;;;;;;;7.07;2.20;;;22.60;57.50;;;;;;5031756;28;20121;-60
2023/07/14 10:35:22;;;;;;;5.22;1.80;;;22.70;57.70;;;;;;5034428;28;20042;-60
2023/07/14 10:37:59;;;;;;;4.85;2.13;;;22.70;57.50;;;;;;5034573;28;20102;-60
2023/07/14 10:40:27;;;;;;;6.68;1.92;;;22.70;57.20;;;;;;5032019;28;20045;-60
2023/07/14 10:42:58;;;;;;;8.32;2.55;;;22.70;57.10;;;;;;5033917;28;20397;-61
2023/07/14 10:45:25;;;;;;;5.97;1.90;;;22.70;56.50;;;;;;5016249;28;20068;-61
2023/07/14 10:47:59;;;;;;;8.20;2.20;;;22.70;56.40;;;;;;5034241;28;20050;-61
2023/07/14 10:50:36;;;;;;;4.35;2.10;;;22.70;56.20;;;;;;5031188;28;20052;-61
2023/07/14 10:53:34;;;;;;;5.88;2.17;;;22.70;56.00;;;;;;5031139;28;20033;-61
2023/07/14 10:56:02;;;;;;;5.82;2.83;;;22.70;56.50;;;;;;5034003;28;20492;-61
2023/07/14 10:58:44;;;;;;;5.03;2.20;;;22.70;56.60;;;;;;5033808;28;20041;-61
2023/07/14 11:01:18;;;;;;;5.30;2.05;;;22.70;56.50;;;;;;5034363;28;20041;-61
2023/07/14 11:03:53;;;;;;;5.10;2.60;;;22.70;56.50;;;;;;5033792;28;20555;-61
2023/07/14 11:06:30;;;;;;;5.13;1.92;;;22.70;56.50;;;;;;5034849;28;20049;-61
2023/07/14 11:08:56;;;;;;;5.88;2.40;;;22.70;56.50;;;;;;5034310;28;20041;-61
2023/07/14 11:11:39;;;;;;;5.40;2.10;;;22.80;56.60;;;;;;5033469;28;20037;-61
2023/07/14 11:14:24;;;;;;;5.18;2.40;;;22.80;56.70;;;;;;5035044;28;20042;-61
2023/07/14 11:16:53;;;;;;;5.38;2.35;;;22.80;56.70;;;;;;5034669;28;20052;-61
2023/07/14 11:19:30;;;;;;;4.82;2.05;;;22.80;56.70;;;;;;5034006;28;20045;-61
2023/07/14 11:22:04;;;;;;;5.67;2.50;;;22.80;56.60;;;;;;5033971;28;20046;-61
2023/07/14 11:24:44;;;;;;;5.63;2.30;;;22.80;56.00;;;;;;5033952;28;20038;-61
2023/07/14 11:27:22;;;;;;;10.82;2.80;;;22.80;55.60;;;;;;5032830;28;20057;-60
2023/07/14 11:29:54;;;;;;;12.35;2.47;;;22.80;55.70;;;;;;5033549;28;20041;-62
2023/07/14 11:32:21;;;;;;;6.38;2.22;;;22.80;55.80;;;;;;5032635;28;20485;-64
2023/07/14 11:35:17;;;;;;;5.75;2.15;;;22.80;55.70;;;;;;5032490;28;20049;-60
2023/07/14 11:38:05;;;;;;;8.77;2.00;;;22.90;55.90;;;;;;5013541;28;20049;-61
2023/07/14 11:40:35;;;;;;;10.90;2.70;;;22.90;56.00;;;;;;5012341;28;20410;-62
2023/07/14 11:43:01;;;;;;;8.38;2.08;;;23.00;56.00;;;;;;4997258;28;20353;-62
2023/07/14 11:45:28;;;;;;;9.32;2.00;;;23.00;56.10;;;;;;5013931;28;20045;-62
2023/07/14 11:47:55;;;;;;;5.82;2.10;;;23.00;56.20;;;;;;5012391;28;20057;-62
2023/07/14 11:50:24;;;;;;;5.35;1.98;;;23.00;56.10;;;;;;5017803;28;20034;-62
2023/07/14 11:53:10;;;;;;;5.10;1.83;;;23.10;56.30;;;;;;5033573;28;20469;-62
2023/07/14 11:55:40;;;;;;;6.32;2.22;;;23.10;56.40;;;;;;5032582;28;20439;-64
2023/07/14 11:58:22;;;;;;;10.90;2.25;;;23.20;56.40;;;;;;5034361;28;20045;-63
2023/07/14 12:00:52;;;;;;;7.40;2.00;;;23.20;56.60;;;;;;5032887;28;20049;-63
2023/07/14 12:03:28;;;;;;;7.78;2.20;;;23.30;56.30;;;;;;5031465;28;20136;-62
2023/07/14 12:06:24;;;;;;;10.75;2.83;;;23.50;56.40;;;;;;5021980;28;20095;-60
2023/07/14 12:09:00;;;;;;;6.07;1.90;;;23.50;56.30;;;;;;5012640;28;20054;-60
2023/07/14 12:11:38;;;;;;;4.68;2.15;;;23.60;56.20;;;;;;5026099;28;20041;-59
2023/07/14 12:14:06;;;;;;;;;;;23.60;56.00;;;;;;5029936;28;20046;-60
2023/07/14 12:16:46;;;;;;;4.78;1.75;;;23.60;56.20;;;;;;5022203;28;19921;-60
2023/07/14 12:19:22;;;;;;;6.63;2.30;;;23.60;56.20;;;;;;5020201;28;20049;-60
2023/07/14 12:22:09;;;;;;;4.40;1.70;;;23.60;56.10;;;;;;5021750;28;20037;-60
2023/07/14 12:24:43;;;;;;;6.78;2.03;;;23.60;56.20;;;;;;5018646;28;20544;-60
2023/07/14 12:27:22;;;;;;;5.40;1.90;;;23.60;56.10;;;;;;5016822;28;20060;-59
2023/07/14 12:30:14;;;;;;;6.82;2.28;;;23.60;56.30;;;;;;5022207;28;20049;-60
2023/07/14 12:32:40;;;;;;;7.55;2.20;;;23.70;56.10;;;;;;5026112;28;20037;-60
2023/07/14 12:35:16;;;;;;;5.93;2.20;;;23.70;56.00;;;;;;5017076;28;20045;-59
2023/07/14 12:37:42;;;;;;;4.63;2.10;;;23.70;56.00;;;;;;5018076;28;20049;-60
2023/07/14 12:40:33;;;;;;;5.38;1.90;;;23.70;56.00;;;;;;5017459;28;20065;-59
2023/07/14 12:42:59;;;;;;;7.63;2.15;;;23.70;56.20;;;;;;5014263;28;20085;-60
2023/07/14 12:45:25;;;;;;;6.43;2.53;;;23.70;56.10;;;;;;5018774;28;20127;-59
2023/07/14 12:47:52;;;;;;;6.20;2.30;;;23.70;56.00;;;;;;5019259;28;20041;-59
2023/07/14 12:50:19;;;;;;;4.80;2.00;;;23.70;56.00;;;;;;5019355;28;20064;-60
2023/07/14 12:52:45;;;;;;;5.05;1.90;;;23.70;56.00;;;;;;5001979;28;20532;-59
2023/07/14 12:55:13;;;;;;;4.82;2.10;;;23.70;55.90;;;;;;5017596;28;20050;-60
2023/07/14 12:57:39;;;;;;;6.22;1.95;;;23.70;56.00;;;;;;5017327;28;20077;-60